首页
METAR-TAF:

METAR-TAF

机场 :

直布罗陀, 直布罗陀

直布羅陀機場

纬度: 36-09N, 经度: 005-21W, 海拔: 5米

当前天气观测

该预报发布于52分钟前的00:50 UTC
风速13节,风向
温度 15°C
湿度 88%
气压 1019 hPa
能见度10公里或以上

METAR: LXGB 190050Z AUTO 08013KT 9999 // FEW041/// BKN120/// 15/13 Q1019

时间: 02:42 (01:42 UTC)

预报

该预报发布于9小时和18分钟前的16:24 UTC
预报有效从18日的 18点(UTC)到 18日的 22点(UTC)
风速18节,风向,有时为28节阵风
能见度10公里或以上
少量云层高于1400英尺
散云层高于4000英尺
成为
从 18日的 18点(UTC)到 18日的 21点(UTC)
风速14节,风向
几率 30% :
短暂存在
从 18日的 18点(UTC)到 18日的 22点(UTC)
散云层高于2200英尺

TAF: LXGB 181624Z 1818/1822 10018G28KT 9999 FEW014 SCT040 BECMG 1818/1821 08014KT PROB30 TEMPO 1818/1822 SCT022

超过4000个机场的气象观测和天气预报(METAR&TAF报告)。

可查询的气象台以黄色和红色小点在地图上表示。

将鼠标移到小点上方,可查看气象台名称。

然后点击查看天气观测和预报。

如需切换地图:点击带黑十字的绿色按钮放大地图;点击带横线的绿色按钮缩小地图;或者点击绿色箭头查看邻近地区的地图。


METAR-TAF: